Time;durP1;ratioP1;P1;durP2;ratioP2;P2;SDS_P1;SDS_P2;PMS_P1;PMS_P2;Temp;Humidity;BMP_temperature;BMP_pressure;BME280_temperature;BME280_humidity;BME280_pressure;Samples;Min_cycle;Max_cycle;Signal;HPM_P1;HPM_P2
2024/03/21 00:01:35;;;;;;;2.43;2.33;;;8.00;91.80;;;;;;5065183;28;20185;-73
2024/03/21 00:04:01;;;;;;;0.30;0.28;;;8.00;91.80;;;;;;5067009;28;20206;-79
2024/03/21 00:06:27;;;;;;;0.30;0.27;;;8.00;91.80;;;;;;5065372;28;20642;-74
2024/03/21 00:08:53;;;;;;;0.30;0.20;;;8.10;91.60;;;;;;5067262;28;20610;-73
2024/03/21 00:11:19;;;;;;;0.30;0.20;;;8.10;91.60;;;;;;5066500;28;20178;-78
2024/03/21 00:13:44;;;;;;;0.30;0.20;;;8.20;91.50;;;;;;5064590;28;20213;-73
2024/03/21 00:16:12;;;;;;;0.30;0.20;;;8.20;91.40;;;;;;5064803;28;20643;-76
2024/03/21 00:18:38;;;;;;;1.65;1.48;;;8.20;91.40;;;;;;5066762;28;20324;-73
2024/03/21 00:21:04;;;;;;;2.15;1.95;;;8.20;91.40;;;;;;5065453;28;20204;-79
2024/03/21 00:23:30;;;;;;;0.30;0.20;;;8.20;91.30;;;;;;5065508;28;20670;-73
2024/03/21 00:26:00;;;;;;;0.30;0.20;;;8.30;91.30;;;;;;5065038;28;20501;-73
2024/03/21 00:28:26;;;;;;;0.30;0.20;;;8.30;91.20;;;;;;5066520;28;20211;-73
2024/03/21 00:30:56;;;;;;;0.30;0.22;;;8.30;91.20;;;;;;5066502;28;20693;-79
2024/03/21 00:33:22;;;;;;;0.30;0.20;;;8.30;91.40;;;;;;5065055;28;20237;-73
2024/03/21 00:35:48;;;;;;;0.30;0.20;;;8.30;91.30;;;;;;5066263;28;20239;-80
2024/03/21 00:38:13;;;;;;;0.30;0.20;;;8.30;91.40;;;;;;5065843;28;20204;-80
2024/03/21 00:40:39;;;;;;;0.30;0.20;;;8.30;91.20;;;;;;5066399;28;20177;-73
2024/03/21 00:43:04;;;;;;;0.30;0.20;;;8.30;91.20;;;;;;5064812;28;20268;-73
2024/03/21 00:45:30;;;;;;;0.30;0.20;;;8.30;91.30;;;;;;5066110;28;20651;-73
2024/03/21 00:48:02;;;;;;;1.53;1.37;;;8.30;91.30;;;;;;5064467;28;20768;-80
2024/03/21 00:50:29;;;;;;;0.52;0.52;;;8.40;91.30;;;;;;5066124;28;20166;-80
2024/03/21 00:52:54;;;;;;;0.30;0.20;;;8.30;91.20;;;;;;5066151;28;20764;-73
2024/03/21 00:55:21;;;;;;;0.30;0.20;;;8.30;91.30;;;;;;5064636;28;20184;-78
2024/03/21 00:57:46;;;;;;;0.30;0.20;;;8.30;91.40;;;;;;5064221;28;20453;-73
2024/03/21 01:00:13;;;;;;;0.90;0.90;;;8.30;91.40;;;;;;5065595;28;20640;-73
2024/03/21 01:02:39;;;;;;;0.30;0.20;;;8.30;91.30;;;;;;5065564;28;20185;-73
2024/03/21 01:05:06;;;;;;;0.30;0.20;;;8.30;91.40;;;;;;5065783;28;20231;-73
2024/03/21 01:07:32;;;;;;;3.33;3.22;;;8.30;91.40;;;;;;5064337;28;20193;-79
2024/03/21 01:09:58;;;;;;;0.30;0.20;;;8.30;91.40;;;;;;5064252;28;20185;-73
2024/03/21 01:12:23;;;;;;;0.30;0.20;;;8.30;91.30;;;;;;5065447;28;20262;-73
2024/03/21 01:14:49;;;;;;;0.30;0.20;;;8.30;91.40;;;;;;5064698;28;20414;-79
2024/03/21 01:17:15;;;;;;;0.30;0.30;;;8.30;91.50;;;;;;5064484;28;20243;-73
2024/03/21 01:19:40;;;;;;;0.30;0.20;;;8.30;91.30;;;;;;5065551;28;20864;-73
2024/03/21 01:22:06;;;;;;;0.30;0.20;;;8.30;91.40;;;;;;5065567;28;20178;-80
2024/03/21 01:24:32;;;;;;;0.30;0.20;;;8.20;91.40;;;;;;5064317;28;20180;-77
2024/03/21 01:26:58;;;;;;;0.30;0.30;;;8.20;91.50;;;;;;5063977;28;20199;-73
2024/03/21 01:29:23;;;;;;;0.30;0.20;;;8.10;91.40;;;;;;5065707;28;20197;-73
2024/03/21 01:31:49;;;;;;;0.30;0.20;;;8.10;91.50;;;;;;5063825;28;20646;-80
2024/03/21 01:34:15;;;;;;;0.30;0.20;;;8.00;91.50;;;;;;5065255;28;20258;-73
2024/03/21 01:36:49;;;;;;;0.30;0.20;;;8.00;91.60;;;;;;5065439;28;20260;-73
2024/03/21 01:39:15;;;;;;;0.30;0.20;;;7.90;91.80;;;;;;5065650;28;20220;-80
2024/03/21 01:41:41;;;;;;;0.30;0.20;;;7.90;91.80;;;;;;5065153;28;20279;-80
2024/03/21 01:44:16;;;;;;;0.30;0.20;;;7.90;91.90;;;;;;5063680;28;20201;-73
2024/03/21 01:46:42;;;;;;;0.30;0.20;;;7.90;92.20;;;;;;5063580;28;20214;-74
2024/03/21 01:49:09;;;;;;;0.30;0.20;;;7.90;92.10;;;;;;5065252;28;20205;-80
2024/03/21 01:51:36;;;;;;;0.30;0.20;;;7.90;92.10;;;;;;5065044;28;20838;-73
2024/03/21 01:54:04;;;;;;;0.45;0.43;;;7.90;92.10;;;;;;5063876;28;20212;-73
2024/03/21 01:56:31;;;;;;;0.30;0.20;;;7.90;92.20;;;;;;5064811;28;20191;-80
2024/03/21 01:58:57;;;;;;;0.30;0.20;;;7.80;92.30;;;;;;5068203;28;20209;-73
2024/03/21 02:01:27;;;;;;;0.30;0.20;;;7.70;92.20;;;;;;5069390;28;20202;-73
2024/03/21 02:03:55;;;;;;;0.30;0.20;;;7.60;92.20;;;;;;5069257;28;20444;-80
2024/03/21 02:06:22;;;;;;;0.30;0.20;;;7.60;92.30;;;;;;5069001;28;20197;-80
2024/03/21 02:08:48;;;;;;;0.30;0.20;;;7.60;92.60;;;;;;5069545;28;20230;-79
2024/03/21 02:11:14;;;;;;;0.30;0.20;;;7.60;92.60;;;;;;5068827;28;20702;-80
2024/03/21 02:13:41;;;;;;;0.52;0.52;;;7.60;92.90;;;;;;5069347;28;20673;-73
2024/03/21 02:16:07;;;;;;;0.30;0.20;;;7.70;92.30;;;;;;5067245;28;20416;-80
2024/03/21 02:18:33;;;;;;;0.30;0.20;;;7.70;92.60;;;;;;5066759;28;20255;-80
2024/03/21 02:20:59;;;;;;;0.30;0.20;;;7.70;92.50;;;;;;5068911;28;20180;-73
2024/03/21 02:23:24;;;;;;;0.47;0.47;;;7.70;92.40;;;;;;5068909;28;20812;-80
2024/03/21 02:25:50;;;;;;;0.30;0.20;;;7.70;92.50;;;;;;5068916;28;20180;-80
2024/03/21 02:28:16;;;;;;;0.30;0.20;;;7.70;92.60;;;;;;5068146;28;20204;-73
2024/03/21 02:30:44;;;;;;;0.30;0.23;;;7.70;92.60;;;;;;5068694;28;20169;-73
2024/03/21 02:33:09;;;;;;;0.30;0.20;;;7.60;92.60;;;;;;5066907;28;20223;-73
2024/03/21 02:35:35;;;;;;;0.30;0.20;;;7.60;93.00;;;;;;5068753;28;20601;-76
2024/03/21 02:38:01;;;;;;;0.30;0.27;;;7.60;92.50;;;;;;5068401;28;20795;-80
2024/03/21 02:40:26;;;;;;;0.30;0.20;;;7.60;92.70;;;;;;5067098;28;20281;-73
2024/03/21 02:42:52;;;;;;;0.30;0.20;;;7.70;92.60;;;;;;5067948;28;20201;-80
2024/03/21 02:45:20;;;;;;;0.30;0.20;;;7.60;92.70;;;;;;5068420;28;20177;-79
2024/03/21 02:47:45;;;;;;;0.30;0.20;;;7.70;92.70;;;;;;5066962;28;20212;-80
2024/03/21 02:50:11;;;;;;;0.30;0.20;;;7.70;92.50;;;;;;5068189;28;20173;-73
2024/03/21 02:52:37;;;;;;;0.30;0.20;;;7.70;92.60;;;;;;5066918;28;20757;-80
2024/03/21 02:55:02;;;;;;;0.30;0.20;;;7.70;92.50;;;;;;5067016;28;20169;-80
2024/03/21 02:57:28;;;;;;;0.30;0.20;;;7.80;92.60;;;;;;5066198;28;20280;-73
2024/03/21 02:59:54;;;;;;;3.00;2.77;;;7.70;92.70;;;;;;5068265;28;20418;-79
2024/03/21 03:02:19;;;;;;;0.30;0.20;;;7.70;92.90;;;;;;5067893;28;20564;-73
2024/03/21 03:04:45;;;;;;;0.30;0.20;;;7.70;93.20;;;;;;5067025;28;20212;-80
2024/03/21 03:07:11;;;;;;;0.87;0.87;;;7.60;93.10;;;;;;5066365;28;20227;-73
2024/03/21 03:09:37;;;;;;;0.30;0.20;;;7.60;93.10;;;;;;5066138;28;20437;-73
2024/03/21 03:12:03;;;;;;;0.30;0.20;;;7.60;93.30;;;;;;5067861;28;20719;-73
2024/03/21 03:14:28;;;;;;;0.30;0.20;;;7.50;92.90;;;;;;5066485;28;20261;-76
2024/03/21 03:16:54;;;;;;;0.30;0.20;;;7.40;93.00;;;;;;5067326;28;20820;-80
2024/03/21 03:19:20;;;;;;;0.30;0.20;;;7.40;93.30;;;;;;5067103;28;20205;-80
2024/03/21 03:21:45;;;;;;;0.30;0.27;;;7.40;93.50;;;;;;5065939;28;20287;-73
2024/03/21 03:24:11;;;;;;;0.30;0.20;;;7.40;93.50;;;;;;5066572;28;20205;-73
2024/03/21 03:26:36;;;;;;;0.30;0.20;;;7.40;93.40;;;;;;5067162;28;20567;-74
2024/03/21 03:29:02;;;;;;;0.30;0.20;;;7.40;93.50;;;;;;5067613;28;20197;-80
2024/03/21 03:31:28;;;;;;;0.30;0.20;;;7.40;93.50;;;;;;5066151;28;20169;-73
2024/03/21 03:36:54;;;;;;;0.30;0.20;;;7.30;93.10;;;;;;5024642;28;20190;-80
2024/03/21 03:39:20;;;;;;;0.30;0.20;;;7.20;93.10;;;;;;5053010;28;20216;-80
2024/03/21 03:41:45;;;;;;;0.30;0.20;;;7.20;93.20;;;;;;5067096;28;20275;-80
2024/03/21 03:44:11;;;;;;;0.30;0.20;;;7.20;93.30;;;;;;5065866;28;20241;-80
2024/03/21 03:46:36;;;;;;;0.30;0.20;;;7.10;93.30;;;;;;5066888;28;20201;-74
2024/03/21 03:49:02;;;;;;;0.30;0.20;;;7.10;93.50;;;;;;5067169;28;20747;-73
2024/03/21 03:51:28;;;;;;;0.30;0.20;;;7.10;93.40;;;;;;5065590;28;20173;-73
2024/03/21 03:53:53;;;;;;;0.30;0.20;;;7.10;93.50;;;;;;5067503;28;20213;-80
2024/03/21 03:56:19;;;;;;;0.40;0.40;;;7.20;93.80;;;;;;5066665;28;20173;-73
2024/03/21 03:58:45;;;;;;;0.40;0.40;;;7.20;93.40;;;;;;5067517;28;20264;-80
2024/03/21 04:01:10;;;;;;;0.30;0.20;;;7.20;93.40;;;;;;5066570;28;20371;-79
2024/03/21 04:03:36;;;;;;;0.40;0.40;;;7.20;93.20;;;;;;5067407;28;20191;-80
2024/03/21 04:06:04;;;;;;;0.30;0.30;;;7.30;93.10;;;;;;5067011;28;20180;-73
2024/03/21 04:08:29;;;;;;;0.30;0.20;;;7.40;93.00;;;;;;5067074;28;20220;-80
2024/03/21 04:10:57;;;;;;;0.30;0.20;;;7.50;92.90;;;;;;5067115;28;20177;-80
2024/03/21 04:13:23;;;;;;;0.30;0.22;;;7.60;92.90;;;;;;5066556;28;20481;-79
2024/03/21 04:15:56;;;;;;;0.30;0.20;;;7.70;93.00;;;;;;5066805;28;20580;-79
2024/03/21 04:21:07;;;;;;;0.30;0.20;;;7.80;92.80;;;;;;5065824;28;20179;-79
2024/03/21 04:23:33;;;;;;;0.30;0.20;;;7.90;92.60;;;;;;5066106;28;20201;-73
2024/03/21 04:25:58;;;;;;;0.30;0.20;;;7.80;92.50;;;;;;5064647;28;20402;-80
2024/03/21 04:28:24;;;;;;;0.30;0.20;;;7.80;92.40;;;;;;5064745;28;20254;-80
2024/03/21 04:30:50;;;;;;;0.30;0.20;;;7.80;92.40;;;;;;5065169;28;20260;-73
2024/03/21 04:33:16;;;;;;;0.30;0.20;;;7.80;92.50;;;;;;5064653;28;20479;-73
2024/03/21 04:35:41;;;;;;;0.30;0.20;;;7.80;92.40;;;;;;5066586;28;20173;-73
2024/03/21 04:38:08;;;;;;;0.30;0.20;;;7.80;92.30;;;;;;5064290;28;20211;-73
2024/03/21 04:40:34;;;;;;;0.30;0.20;;;7.70;92.50;;;;;;5066304;28;20173;-79
2024/03/21 04:43:00;;;;;;;0.30;0.20;;;7.70;92.50;;;;;;5066117;28;20851;-74
2024/03/21 04:45:26;;;;;;;0.30;0.20;;;7.70;92.50;;;;;;5064712;28;20440;-82
2024/03/21 04:47:51;;;;;;;0.53;0.50;;;7.70;92.40;;;;;;5065946;28;20601;-74
2024/03/21 04:50:21;;;;;;;0.30;0.20;;;7.70;92.60;;;;;;5064259;28;20590;-79
2024/03/21 04:52:47;;;;;;;2.38;2.28;;;7.70;92.70;;;;;;5065519;28;20208;-75
2024/03/21 04:55:13;;;;;;;0.30;0.20;;;7.70;92.70;;;;;;5065852;28;20230;-75
2024/03/21 04:57:39;;;;;;;0.30;0.20;;;7.70;92.70;;;;;;5065493;28;20200;-75
2024/03/21 05:00:10;;;;;;;0.30;0.20;;;7.80;92.70;;;;;;5064295;28;20385;-75
2024/03/21 05:02:39;;;;;;;0.30;0.20;;;7.80;92.80;;;;;;5064128;28;20208;-81
2024/03/21 05:05:05;;;;;;;0.30;0.20;;;7.80;92.70;;;;;;5064323;28;20689;-77
2024/03/21 05:07:32;;;;;;;0.30;0.20;;;7.80;92.80;;;;;;5064070;28;20196;-79
2024/03/21 05:09:58;;;;;;;0.30;0.20;;;7.80;92.80;;;;;;5070940;28;20250;-73
2024/03/21 05:12:24;;;;;;;0.30;0.20;;;7.80;92.70;;;;;;5062482;28;20177;-82
2024/03/21 05:14:50;;;;;;;0.30;0.20;;;7.90;92.90;;;;;;5064366;28;20458;-81
2024/03/21 05:17:17;;;;;;;0.30;0.20;;;7.90;92.80;;;;;;5064773;28;20209;-81
2024/03/21 05:19:44;;;;;;;0.30;0.20;;;8.00;92.80;;;;;;5065505;28;20177;-81
2024/03/21 05:22:10;;;;;;;0.30;0.20;;;8.00;92.70;;;;;;5063612;28;20181;-74
2024/03/21 05:24:36;;;;;;;0.30;0.20;;;8.10;92.70;;;;;;5064986;28;20182;-79
2024/03/21 05:27:02;;;;;;;0.30;0.20;;;8.10;92.70;;;;;;5064746;28;20177;-78
2024/03/21 05:29:29;;;;;;;0.30;0.28;;;8.20;92.70;;;;;;5065013;28;20434;-74
2024/03/21 05:31:55;;;;;;;0.30;0.20;;;8.30;92.70;;;;;;5077340;28;20453;-80
2024/03/21 05:34:21;;;;;;;0.30;0.20;;;8.30;92.50;;;;;;5084967;28;20295;-73
2024/03/21 05:36:46;;;;;;;0.30;0.20;;;8.40;92.40;;;;;;5083991;28;20675;-77
2024/03/21 05:39:12;;;;;;;0.30;0.20;;;8.50;92.50;;;;;;5084170;28;20448;-73
2024/03/21 05:41:38;;;;;;;0.30;0.20;;;8.60;92.50;;;;;;5084805;28;20169;-73
2024/03/21 05:44:03;;;;;;;0.30;0.20;;;8.60;92.50;;;;;;5085663;28;20239;-73
2024/03/21 05:46:29;;;;;;;2.50;2.40;;;8.70;92.50;;;;;;5084780;28;20164;-73
2024/03/21 05:48:55;;;;;;;0.30;0.20;;;8.80;92.30;;;;;;5085722;28;20434;-80
2024/03/21 05:51:21;;;;;;;0.30;0.20;;;8.90;92.30;;;;;;5083859;28;20556;-81
2024/03/21 05:53:47;;;;;;;0.30;0.30;;;9.00;92.20;;;;;;5083877;28;20223;-73
2024/03/21 05:56:14;;;;;;;0.30;0.20;;;9.10;92.10;;;;;;5084815;28;20185;-80
2024/03/21 05:58:39;;;;;;;0.30;0.20;;;9.20;92.20;;;;;;5083843;28;20592;-81
2024/03/21 06:01:22;;;;;;;0.30;0.20;;;9.30;92.20;;;;;;5067613;28;20230;-73
2024/03/21 06:03:48;;;;;;;1.15;1.13;;;9.40;92.30;;;;;;5072436;28;20237;-81
2024/03/21 06:06:15;;;;;;;0.30;0.20;;;9.50;92.60;;;;;;5082983;28;20176;-81
2024/03/21 06:08:41;;;;;;;2.30;2.25;;;9.60;91.90;;;;;;5082838;28;20734;-73
2024/03/21 06:11:07;;;;;;;15.30;14.40;;;9.50;92.20;;;;;;5083259;28;20759;-81
2024/03/21 06:13:33;;;;;;;5.37;5.17;;;9.40;92.40;;;;;;5081526;28;20220;-81
2024/03/21 06:15:59;;;;;;;1.70;1.60;;;9.50;92.50;;;;;;5077418;28;20428;-73
2024/03/21 06:18:25;;;;;;;0.30;0.30;;;9.40;92.60;;;;;;5061746;28;21156;-80
2024/03/21 06:20:50;;;;;;;0.30;0.20;;;9.50;92.80;;;;;;5079263;28;20192;-79
2024/03/21 06:23:16;;;;;;;2.97;2.83;;;9.50;93.00;;;;;;5067719;28;20288;-71
2024/03/21 06:25:42;;;;;;;14.40;13.53;;;9.60;92.60;;;;;;5071393;28;20639;-74
2024/03/21 06:28:08;;;;;;;0.30;0.20;;;9.80;92.70;;;;;;5072552;28;20204;-73
2024/03/21 06:30:35;;;;;;;8.50;4.00;;;9.90;92.80;;;;;;5074904;28;20234;-74
2024/03/21 06:33:01;;;;;;;0.30;0.20;;;9.90;92.80;;;;;;5065665;28;20465;-73
2024/03/21 06:35:27;;;;;;;46.92;15.48;;;10.00;93.00;;;;;;5078252;28;20674;-80
2024/03/21 06:37:53;;;;;;;0.30;0.20;;;10.10;93.20;;;;;;5079612;28;20320;-81
2024/03/21 06:40:20;;;;;;;0.30;0.20;;;10.20;93.30;;;;;;5082494;28;20220;-74
2024/03/21 06:42:45;;;;;;;0.30;0.20;;;10.40;93.90;;;;;;5079816;28;20204;-80
2024/03/21 06:45:11;;;;;;;0.30;0.20;;;10.50;93.40;;;;;;5076554;28;20201;-74
2024/03/21 06:47:44;;;;;;;0.30;0.30;;;10.60;93.30;;;;;;5077110;28;20201;-74
2024/03/21 06:50:11;;;;;;;0.30;0.20;;;10.80;93.10;;;;;;5073498;28;20601;-81
2024/03/21 06:52:37;;;;;;;0.30;0.20;;;10.90;92.80;;;;;;5072330;28;20493;-73
2024/03/21 06:55:03;;;;;;;0.30;0.20;;;11.10;92.50;;;;;;5066181;28;20254;-71
2024/03/21 06:57:29;;;;;;;0.30;0.20;;;11.20;92.60;;;;;;5069230;28;20596;-79
2024/03/21 06:59:54;;;;;;;0.30;0.20;;;11.30;92.50;;;;;;5071933;28;20687;-72
2024/03/21 07:02:20;;;;;;;3.30;3.10;;;11.40;92.40;;;;;;5071249;28;20180;-72
2024/03/21 07:04:46;;;;;;;0.30;0.20;;;11.60;92.60;;;;;;5073615;28;20185;-72
2024/03/21 07:07:13;;;;;;;2.50;2.40;;;11.80;92.50;;;;;;5071119;28;20184;-79
2024/03/21 07:09:39;;;;;;;0.40;0.30;;;11.90;92.30;;;;;;5072526;28;20485;-72
2024/03/21 07:12:05;;;;;;;0.40;0.40;;;12.10;92.30;;;;;;5066913;28;20180;-79
2024/03/21 07:14:32;;;;;;;0.30;0.20;;;12.20;92.10;;;;;;5067430;28;20235;-78
2024/03/21 07:17:00;;;;;;;0.30;0.20;;;12.30;91.60;;;;;;5064589;28;20481;-71
2024/03/21 07:19:33;;;;;;;0.30;0.20;;;12.50;91.80;;;;;;5075833;28;20204;-79
2024/03/21 07:22:04;;;;;;;0.52;0.52;;;12.70;91.70;;;;;;5075468;28;20910;-79
2024/03/21 07:24:30;;;;;;;30.97;7.67;;;12.80;91.10;;;;;;5071068;28;20598;-72
2024/03/21 07:26:57;;;;;;;0.30;0.20;;;13.00;91.00;;;;;;5078979;28;20513;-72
2024/03/21 07:29:23;;;;;;;0.30;0.20;;;13.20;90.80;;;;;;5078402;28;20452;-72
2024/03/21 07:31:48;;;;;;;4.77;4.53;;;13.40;90.60;;;;;;5080693;28;20808;-72
2024/03/21 07:34:14;;;;;;;0.30;0.20;;;13.60;90.20;;;;;;5072277;28;20221;-71
2024/03/21 07:36:40;;;;;;;0.30;0.20;;;13.80;89.60;;;;;;5070801;28;20342;-79
2024/03/21 07:39:06;;;;;;;0.40;0.30;;;13.90;88.60;;;;;;5079762;28;20524;-72
2024/03/21 07:41:31;;;;;;;1.03;1.03;;;14.10;88.20;;;;;;5082100;28;20174;-79
2024/03/21 07:43:57;;;;;;;0.30;0.30;;;14.20;87.40;;;;;;5085246;28;20862;-72
2024/03/21 07:46:23;;;;;;;0.40;0.40;;;14.30;87.50;;;;;;5075105;28;20204;-72
2024/03/21 07:48:48;;;;;;;1.50;1.43;;;14.40;88.40;;;;;;5082157;28;20211;-79
2024/03/21 07:51:14;;;;;;;6.27;5.93;;;14.40;88.60;;;;;;5068790;28;20416;-79
2024/03/21 07:53:40;;;;;;;0.30;0.20;;;14.50;87.10;;;;;;5074316;28;20209;-72
2024/03/21 07:56:06;;;;;;;0.30;0.20;;;14.60;86.40;;;;;;5079508;28;20219;-73
2024/03/21 07:58:31;;;;;;;0.93;0.93;;;14.70;86.40;;;;;;5083209;28;20260;-80
2024/03/21 08:00:57;;;;;;;0.30;0.30;;;14.70;86.50;;;;;;5079680;28;20195;-79
2024/03/21 08:03:23;;;;;;;0.30;0.20;;;14.80;87.50;;;;;;5083371;28;20279;-72
2024/03/21 08:05:48;;;;;;;9.93;9.00;;;15.00;87.40;;;;;;5082358;28;20181;-72
2024/03/21 08:08:14;;;;;;;0.40;0.40;;;15.10;86.90;;;;;;5082758;28;20689;-80
2024/03/21 08:10:40;;;;;;;1.03;1.03;;;15.20;86.30;;;;;;5072974;28;20227;-79
2024/03/21 08:13:07;;;;;;;0.30;0.20;;;15.40;86.10;;;;;;5071070;28;20224;-72
2024/03/21 08:15:33;;;;;;;0.30;0.20;;;15.50;84.20;;;;;;5074441;28;20418;-73
2024/03/21 08:17:59;;;;;;;1.07;0.97;;;15.70;84.20;;;;;;5073073;28;20723;-73
2024/03/21 08:20:25;;;;;;;0.30;0.20;;;15.90;85.50;;;;;;5072317;28;20165;-72
2024/03/21 08:22:50;;;;;;;1.67;1.57;;;16.00;84.30;;;;;;5070881;28;20288;-75
2024/03/21 08:25:16;;;;;;;0.40;0.40;;;16.30;82.60;;;;;;5074955;28;20180;-72
2024/03/21 08:27:43;;;;;;;0.40;0.20;;;16.70;81.70;;;;;;5071233;28;20495;-72
2024/03/21 08:30:09;;;;;;;2.73;1.23;;;17.20;80.60;;;;;;5065095;28;20230;-72
2024/03/21 08:32:34;;;;;;;4.83;1.90;;;17.90;80.50;;;;;;5067530;28;20475;-80
2024/03/21 08:35:00;;;;;;;1.03;1.03;;;18.70;78.90;;;;;;5066478;28;20415;-73
2024/03/21 08:37:25;;;;;;;4.27;4.07;;;19.70;77.20;;;;;;5067066;28;20243;-80
2024/03/21 08:39:51;;;;;;;1.27;0.87;;;20.70;75.10;;;;;;5070182;28;20215;-73
2024/03/21 08:42:17;;;;;;;1.17;0.50;;;21.60;73.90;;;;;;5067875;28;20234;-73
2024/03/21 08:44:42;;;;;;;1.70;1.60;;;22.50;71.00;;;;;;5069454;28;20181;-74
2024/03/21 08:47:08;;;;;;;1.40;1.30;;;23.30;69.30;;;;;;5065412;28;20704;-83
2024/03/21 08:49:34;;;;;;;3.90;1.70;;;24.00;68.30;;;;;;5071509;28;20215;-82
2024/03/21 08:51:59;;;;;;;0.40;0.40;;;24.80;66.10;;;;;;5070207;28;20180;-83
2024/03/21 08:54:25;;;;;;;0.30;0.20;;;25.20;65.40;;;;;;5069937;28;20254;-72
2024/03/21 08:56:55;;;;;;;0.30;0.30;;;25.40;63.60;;;;;;5069098;28;20903;-73
2024/03/21 08:59:21;;;;;;;1.17;1.17;;;25.50;62.80;;;;;;5069791;28;20234;-72
2024/03/21 09:01:47;;;;;;;0.30;0.30;;;25.50;63.00;;;;;;5078592;28;20942;-72
2024/03/21 09:04:12;;;;;;;0.70;0.60;;;25.40;62.40;;;;;;5075369;28;20218;-83
2024/03/21 09:06:38;;;;;;;0.87;0.87;;;25.50;61.60;;;;;;5077436;28;20494;-72
2024/03/21 09:09:05;;;;;;;1.03;1.03;;;25.60;61.20;;;;;;5079383;28;20207;-82
2024/03/21 09:11:32;;;;;;;1.23;0.97;;;25.70;61.00;;;;;;5077770;28;20232;-82
2024/03/21 09:13:58;;;;;;;0.40;0.30;;;25.70;60.20;;;;;;5078558;28;20472;-83
2024/03/21 09:16:24;;;;;;;0.40;0.30;;;25.60;59.90;;;;;;5076806;28;20420;-82
2024/03/21 09:18:50;;;;;;;0.30;0.20;;;25.50;60.60;;;;;;5079660;28;20259;-72
2024/03/21 09:21:16;;;;;;;0.53;0.53;;;25.50;60.60;;;;;;5077870;28;20753;-82
2024/03/21 09:23:42;;;;;;;0.90;0.70;;;25.70;59.50;;;;;;5079311;28;20463;-73
2024/03/21 09:26:07;;;;;;;0.40;0.30;;;25.60;58.90;;;;;;5076743;28;20854;-82
2024/03/21 09:28:33;;;;;;;0.30;0.30;;;25.50;59.50;;;;;;5079046;28;20450;-73
2024/03/21 09:30:58;;;;;;;2.17;2.10;;;25.30;60.00;;;;;;5076798;28;20190;-73
2024/03/21 09:33:24;;;;;;;3.50;3.27;;;24.90;59.70;;;;;;5081110;28;20216;-73
2024/03/21 09:36:01;;;;;;;0.30;0.30;;;24.60;59.00;;;;;;5078270;28;20501;-72
2024/03/21 09:38:27;;;;;;;1.20;1.20;;;24.50;60.20;;;;;;5076364;28;20697;-73
2024/03/21 09:40:55;;;;;;;0.30;0.20;;;24.70;59.80;;;;;;5075897;28;20859;-73
2024/03/21 09:43:20;;;;;;;2.40;0.60;;;25.10;59.50;;;;;;5066409;28;20474;-73
2024/03/21 09:45:49;;;;;;;4.03;1.77;;;25.40;59.50;;;;;;5078062;28;20417;-73
2024/03/21 09:48:14;;;;;;;0.90;0.40;;;25.40;59.30;;;;;;5077156;28;20823;-83
2024/03/21 09:50:42;;;;;;;0.30;0.20;;;25.50;59.00;;;;;;5078175;28;20486;-82
2024/03/21 09:53:16;;;;;;;0.30;0.30;;;25.50;59.30;;;;;;5064550;28;20981;-73
2024/03/21 09:55:42;;;;;;;1.10;1.10;;;25.70;58.90;;;;;;5069968;28;20533;-73
2024/03/21 09:58:12;;;;;;;0.40;0.40;;;25.90;58.30;;;;;;5071641;28;20485;-73
2024/03/21 10:00:39;;;;;;;1.97;1.77;;;26.10;57.40;;;;;;5078801;28;20433;-73
2024/03/21 10:03:05;;;;;;;2.57;2.37;;;26.30;57.40;;;;;;5072947;28;20707;-83
2024/03/21 10:05:31;;;;;;;0.40;0.40;;;26.00;59.70;;;;;;5076781;28;20421;-83
2024/03/21 10:07:56;;;;;;;2.83;1.63;;;25.80;59.30;;;;;;5075074;28;21010;-73
2024/03/21 10:10:24;;;;;;;2.20;1.27;;;25.90;57.40;;;;;;5075193;28;20191;-73
2024/03/21 10:12:50;;;;;;;0.63;0.63;;;25.80;57.30;;;;;;5076757;28;20223;-83
2024/03/21 10:15:17;;;;;;;0.40;0.37;;;25.70;57.20;;;;;;5070368;28;20425;-83
2024/03/21 10:17:45;;;;;;;1.03;0.80;;;25.50;56.90;;;;;;5076203;28;20488;-83
2024/03/21 10:20:11;;;;;;;7.67;7.10;;;25.20;57.30;;;;;;5081427;28;20474;-83
2024/03/21 10:22:46;;;;;;;1.83;1.27;;;24.90;57.90;;;;;;5076487;28;20685;-73
2024/03/21 10:25:19;;;;;;;7.00;1.97;;;24.60;57.50;;;;;;5081986;28;21704;-72
2024/03/21 10:27:48;;;;;;;0.30;0.20;;;24.20;58.40;;;;;;5076161;28;20719;-83
2024/03/21 10:30:19;;;;;;;1.50;1.43;;;24.00;58.70;;;;;;5078399;28;20504;-73
2024/03/21 10:32:45;;;;;;;0.30;0.20;;;23.70;59.20;;;;;;5098306;28;21140;-83
2024/03/21 10:35:16;;;;;;;0.30;0.20;;;23.60;61.10;;;;;;5081575;28;20520;-73
2024/03/21 10:37:43;;;;;;;2.27;1.60;;;23.40;60.80;;;;;;5082880;28;20475;-82
2024/03/21 10:40:16;;;;;;;0.30;0.30;;;23.30;61.20;;;;;;5082154;28;20525;-73
2024/03/21 10:42:51;;;;;;;0.50;0.50;;;23.20;61.30;;;;;;5075413;28;20466;-83
2024/03/21 10:45:17;;;;;;;0.30;0.30;;;23.10;60.20;;;;;;5077475;28;20463;-73
2024/03/21 10:47:50;;;;;;;0.40;0.33;;;22.90;61.10;;;;;;5077755;28;21032;-83
2024/03/21 10:50:24;;;;;;;0.30;0.20;;;22.80;60.60;;;;;;5082457;28;20179;-73
2024/03/21 10:52:52;;;;;;;0.83;0.83;;;22.70;60.80;;;;;;5078946;28;20454;-83
2024/03/21 10:55:19;;;;;;;2.50;2.40;;;22.60;59.80;;;;;;5082528;28;20427;-83
2024/03/21 10:57:54;;;;;;;0.30;0.20;;;22.40;61.50;;;;;;5091975;28;20781;-83
2024/03/21 11:00:23;;;;;;;0.30;0.20;;;22.40;61.10;;;;;;5077952;28;20677;-73
2024/03/21 11:02:52;;;;;;;0.30;0.20;;;22.30;60.50;;;;;;5070426;28;20461;-73
2024/03/21 11:05:23;;;;;;;0.93;0.93;;;22.20;61.40;;;;;;5075656;28;20488;-73
2024/03/21 11:07:48;;;;;;;0.30;0.20;;;22.20;62.00;;;;;;5071713;28;20680;-72
2024/03/21 11:10:17;;;;;;;0.30;0.20;;;22.20;62.80;;;;;;5075914;28;20454;-83
2024/03/21 11:12:44;;;;;;;0.40;0.40;;;22.00;64.30;;;;;;5073768;28;20490;-72
2024/03/21 11:15:10;;;;;;;0.40;0.40;;;22.10;62.50;;;;;;5074621;28;20456;-71
2024/03/21 11:17:35;;;;;;;2.60;2.47;;;22.10;61.40;;;;;;5071473;28;20514;-72
2024/03/21 11:20:05;;;;;;;0.30;0.30;;;22.10;62.50;;;;;;5074693;28;20176;-71
2024/03/21 11:22:31;;;;;;;1.13;1.13;;;22.10;61.70;;;;;;5071239;28;20582;-82
2024/03/21 11:25:00;;;;;;;0.60;0.60;;;22.00;62.70;;;;;;5074616;28;20449;-80
2024/03/21 11:27:27;;;;;;;0.30;0.20;;;21.80;62.60;;;;;;5073903;28;20451;-71
2024/03/21 11:29:53;;;;;;;0.30;0.20;;;21.80;62.00;;;;;;5074331;28;20433;-71
2024/03/21 11:32:25;;;;;;;0.50;0.50;;;21.70;63.10;;;;;;5073567;28;20448;-70
2024/03/21 11:34:51;;;;;;;0.40;0.30;;;21.70;63.90;;;;;;5070488;28;20229;-81
2024/03/21 11:37:17;;;;;;;1.37;0.97;;;21.80;63.70;;;;;;5074204;28;20414;-71
2024/03/21 11:39:44;;;;;;;0.30;0.20;;;21.90;64.30;;;;;;5072447;28;20446;-79
2024/03/21 11:42:17;;;;;;;0.70;0.70;;;21.90;65.20;;;;;;5072582;28;21141;-78
2024/03/21 11:44:45;;;;;;;3.33;1.50;;;22.00;65.40;;;;;;5072452;28;20556;-72
2024/03/21 11:47:15;;;;;;;0.30;0.30;;;22.00;64.40;;;;;;5070393;28;20488;-72
2024/03/21 11:49:41;;;;;;;0.30;0.20;;;22.10;62.10;;;;;;5079209;28;20866;-80
2024/03/21 11:52:14;;;;;;;0.80;0.80;;;22.10;62.40;;;;;;5075955;28;20431;-84
2024/03/21 11:54:40;;;;;;;0.40;0.30;;;22.20;61.90;;;;;;5070205;28;20734;-70
2024/03/21 11:57:10;;;;;;;0.30;0.20;;;22.20;62.30;;;;;;5074552;28;20461;-81
2024/03/21 11:59:38;;;;;;;0.30;0.20;;;22.10;61.50;;;;;;5067912;28;20449;-78
2024/03/21 12:02:08;;;;;;;0.30;0.20;;;22.10;61.90;;;;;;5071095;28;21114;-78
2024/03/21 12:04:34;;;;;;;0.30;0.20;;;22.10;62.90;;;;;;5071901;28;21080;-80
2024/03/21 12:07:00;;;;;;;0.30;0.20;;;22.10;63.50;;;;;;5073909;28;20433;-71
2024/03/21 12:09:25;;;;;;;0.30;0.20;;;22.10;62.50;;;;;;5095213;28;20206;-80
2024/03/21 12:11:51;;;;;;;0.30;0.30;;;22.20;62.40;;;;;;5076776;28;20192;-79
2024/03/21 12:14:16;;;;;;;0.30;0.20;;;22.20;62.50;;;;;;5075227;28;20218;-81
2024/03/21 12:16:42;;;;;;;0.30;0.20;;;22.20;62.00;;;;;;5066845;28;20177;-70
2024/03/21 12:19:09;;;;;;;0.30;0.20;;;22.20;62.20;;;;;;5075123;28;20730;-70
2024/03/21 12:21:34;;;;;;;0.40;0.40;;;22.20;61.70;;;;;;5069536;28;20429;-70
2024/03/21 12:24:00;;;;;;;0.30;0.20;;;22.10;60.70;;;;;;5068077;28;20432;-79
2024/03/21 12:26:27;;;;;;;0.30;0.20;;;22.00;61.30;;;;;;5075572;28;20445;-78
2024/03/21 12:28:53;;;;;;;0.40;0.30;;;22.00;61.90;;;;;;5082500;28;20550;-77
2024/03/21 12:31:19;;;;;;;0.30;0.20;;;22.00;61.10;;;;;;5078936;28;20290;-74
2024/03/21 12:33:45;;;;;;;1.77;1.67;;;22.00;60.90;;;;;;5078618;28;21273;-70
2024/03/21 12:36:11;;;;;;;2.17;2.07;;;21.90;61.30;;;;;;5070371;28;20181;-79
2024/03/21 12:38:38;;;;;;;0.30;0.20;;;21.90;61.80;;;;;;5073064;28;20449;-77
2024/03/21 12:41:07;;;;;;;0.50;0.50;;;21.80;62.30;;;;;;5079440;28;20866;-71
2024/03/21 12:43:33;;;;;;;1.90;1.37;;;21.80;63.00;;;;;;5075744;28;20456;-77
2024/03/21 12:45:59;;;;;;;0.80;0.80;;;21.80;63.80;;;;;;5081218;28;20425;-71
2024/03/21 12:48:28;;;;;;;0.50;0.50;;;21.80;62.40;;;;;;5076119;28;20282;-71
2024/03/21 12:50:53;;;;;;;2.90;1.63;;;21.90;62.50;;;;;;5074151;28;20188;-72
2024/03/21 12:53:21;;;;;;;0.43;0.43;;;21.90;62.30;;;;;;5081253;28;20464;-71
2024/03/21 12:55:48;;;;;;;0.30;0.30;;;21.90;62.10;;;;;;5079484;28;20184;-80